sensor_id;sensor_type;location;lat;lon;timestamp;P1;durP1;ratioP1;P2;durP2;ratioP2
17510;SDS011;8873;48.818;9.422;2022-09-09T00:02:24;4.60;;;2.35;;
17510;SDS011;8873;48.818;9.422;2022-09-09T00:04:57;4.75;;;2.10;;
17510;SDS011;8873;48.818;9.422;2022-09-09T00:07:31;2.70;;;2.17;;
17510;SDS011;8873;48.818;9.422;2022-09-09T00:10:03;5.82;;;2.42;;
17510;SDS011;8873;48.818;9.422;2022-09-09T00:12:34;2.95;;;2.30;;
17510;SDS011;8873;48.818;9.422;2022-09-09T00:15:05;7.20;;;2.13;;
17510;SDS011;8873;48.818;9.422;2022-09-09T00:17:37;3.10;;;2.05;;
17510;SDS011;8873;48.818;9.422;2022-09-09T00:20:10;6.65;;;2.22;;
17510;SDS011;8873;48.818;9.422;2022-09-09T00:22:40;3.42;;;2.10;;
17510;SDS011;8873;48.818;9.422;2022-09-09T00:25:11;7.70;;;2.35;;
17510;SDS011;8873;48.818;9.422;2022-09-09T00:27:40;7.45;;;2.35;;
17510;SDS011;8873;48.818;9.422;2022-09-09T00:30:13;3.75;;;2.00;;
17510;SDS011;8873;48.818;9.422;2022-09-09T00:32:43;3.13;;;2.03;;
17510;SDS011;8873;48.818;9.422;2022-09-09T00:35:14;2.97;;;2.20;;
17510;SDS011;8873;48.818;9.422;2022-09-09T00:37:44;3.97;;;2.20;;
17510;SDS011;8873;48.818;9.422;2022-09-09T00:40:17;10.98;;;2.50;;
17510;SDS011;8873;48.818;9.422;2022-09-09T00:42:45;4.35;;;2.30;;
17510;SDS011;8873;48.818;9.422;2022-09-09T00:45:17;5.35;;;2.47;;
17510;SDS011;8873;48.818;9.422;2022-09-09T00:47:48;2.83;;;2.10;;
17510;SDS011;8873;48.818;9.422;2022-09-09T00:50:21;3.60;;;2.10;;
17510;SDS011;8873;48.818;9.422;2022-09-09T00:52:56;4.38;;;2.33;;
17510;SDS011;8873;48.818;9.422;2022-09-09T00:55:28;5.20;;;2.28;;
17510;SDS011;8873;48.818;9.422;2022-09-09T00:57:58;3.35;;;2.10;;
17510;SDS011;8873;48.818;9.422;2022-09-09T01:00:26;5.38;;;2.20;;
17510;SDS011;8873;48.818;9.422;2022-09-09T01:03:02;2.28;;;2.08;;
17510;SDS011;8873;48.818;9.422;2022-09-09T01:05:36;8.20;;;2.47;;
17510;SDS011;8873;48.818;9.422;2022-09-09T01:08:11;5.93;;;1.98;;
17510;SDS011;8873;48.818;9.422;2022-09-09T01:10:43;3.47;;;2.13;;
17510;SDS011;8873;48.818;9.422;2022-09-09T01:13:16;5.20;;;2.17;;
17510;SDS011;8873;48.818;9.422;2022-09-09T01:15:46;5.68;;;2.33;;
17510;SDS011;8873;48.818;9.422;2022-09-09T01:18:17;3.55;;;2.20;;
17510;SDS011;8873;48.818;9.422;2022-09-09T01:20:47;4.35;;;2.33;;
17510;SDS011;8873;48.818;9.422;2022-09-09T01:23:23;2.97;;;1.90;;
17510;SDS011;8873;48.818;9.422;2022-09-09T01:26:09;4.35;;;2.05;;
17510;SDS011;8873;48.818;9.422;2022-09-09T01:28:40;5.80;;;2.08;;
17510;SDS011;8873;48.818;9.422;2022-09-09T01:31:10;3.63;;;2.38;;
17510;SDS011;8873;48.818;9.422;2022-09-09T01:33:38;5.45;;;2.17;;
17510;SDS011;8873;48.818;9.422;2022-09-09T01:36:07;3.80;;;2.10;;
17510;SDS011;8873;48.818;9.422;2022-09-09T01:38:36;4.88;;;2.65;;
17510;SDS011;8873;48.818;9.422;2022-09-09T01:41:04;6.10;;;2.42;;
17510;SDS011;8873;48.818;9.422;2022-09-09T01:43:33;5.93;;;2.15;;
17510;SDS011;8873;48.818;9.422;2022-09-09T01:46:01;4.05;;;1.98;;
17510;SDS011;8873;48.818;9.422;2022-09-09T01:48:28;3.10;;;2.10;;
17510;SDS011;8873;48.818;9.422;2022-09-09T01:50:56;3.00;;;2.72;;
17510;SDS011;8873;48.818;9.422;2022-09-09T01:53:24;8.48;;;2.55;;
17510;SDS011;8873;48.818;9.422;2022-09-09T01:55:55;4.38;;;2.33;;
17510;SDS011;8873;48.818;9.422;2022-09-09T01:58:28;4.05;;;2.00;;
17510;SDS011;8873;48.818;9.422;2022-09-09T02:01:02;4.40;;;2.15;;
17510;SDS011;8873;48.818;9.422;2022-09-09T02:03:32;4.72;;;1.80;;
17510;SDS011;8873;48.818;9.422;2022-09-09T02:06:04;3.83;;;2.22;;
17510;SDS011;8873;48.818;9.422;2022-09-09T02:08:36;2.97;;;1.80;;
17510;SDS011;8873;48.818;9.422;2022-09-09T02:11:08;2.90;;;2.60;;
17510;SDS011;8873;48.818;9.422;2022-09-09T02:13:38;2.70;;;2.30;;
17510;SDS011;8873;48.818;9.422;2022-09-09T02:16:08;3.75;;;2.35;;
17510;SDS011;8873;48.818;9.422;2022-09-09T02:18:39;4.95;;;2.50;;
17510;SDS011;8873;48.818;9.422;2022-09-09T02:21:08;7.38;;;2.95;;
17510;SDS011;8873;48.818;9.422;2022-09-09T02:23:37;4.07;;;2.40;;
17510;SDS011;8873;48.818;9.422;2022-09-09T02:26:07;2.45;;;2.25;;
17510;SDS011;8873;48.818;9.422;2022-09-09T02:28:35;7.53;;;2.50;;
17510;SDS011;8873;48.818;9.422;2022-09-09T02:31:04;4.07;;;2.22;;
17510;SDS011;8873;48.818;9.422;2022-09-09T02:33:35;2.53;;;2.00;;
17510;SDS011;8873;48.818;9.422;2022-09-09T02:36:04;2.67;;;2.17;;
17510;SDS011;8873;48.818;9.422;2022-09-09T02:38:35;3.72;;;2.30;;
17510;SDS011;8873;48.818;9.422;2022-09-09T02:41:05;2.47;;;2.28;;
17510;SDS011;8873;48.818;9.422;2022-09-09T02:43:33;11.60;;;2.50;;
17510;SDS011;8873;48.818;9.422;2022-09-09T02:46:03;5.28;;;2.28;;
17510;SDS011;8873;48.818;9.422;2022-09-09T02:48:33;2.45;;;2.22;;
17510;SDS011;8873;48.818;9.422;2022-09-09T02:51:05;4.05;;;2.20;;
17510;SDS011;8873;48.818;9.422;2022-09-09T02:53:36;4.68;;;2.13;;
17510;SDS011;8873;48.818;9.422;2022-09-09T02:56:08;6.50;;;2.53;;
17510;SDS011;8873;48.818;9.422;2022-09-09T02:58:36;5.13;;;2.28;;
17510;SDS011;8873;48.818;9.422;2022-09-09T03:01:05;4.45;;;2.30;;
17510;SDS011;8873;48.818;9.422;2022-09-09T03:03:35;5.00;;;2.30;;
17510;SDS011;8873;48.818;9.422;2022-09-09T03:06:07;4.35;;;2.40;;
17510;SDS011;8873;48.818;9.422;2022-09-09T03:08:36;3.95;;;2.40;;
17510;SDS011;8873;48.818;9.422;2022-09-09T03:11:04;5.97;;;2.42;;
17510;SDS011;8873;48.818;9.422;2022-09-09T03:13:32;2.45;;;2.22;;
17510;SDS011;8873;48.818;9.422;2022-09-09T03:15:59;3.25;;;2.20;;
17510;SDS011;8873;48.818;9.422;2022-09-09T03:18:27;4.18;;;2.42;;
17510;SDS011;8873;48.818;9.422;2022-09-09T03:20:55;5.53;;;2.22;;
17510;SDS011;8873;48.818;9.422;2022-09-09T03:23:25;7.32;;;2.80;;
17510;SDS011;8873;48.818;9.422;2022-09-09T03:25:53;3.20;;;2.30;;
17510;SDS011;8873;48.818;9.422;2022-09-09T03:28:23;7.25;;;2.75;;
17510;SDS011;8873;48.818;9.422;2022-09-09T03:30:58;4.80;;;2.45;;
17510;SDS011;8873;48.818;9.422;2022-09-09T03:33:25;6.00;;;2.22;;
17510;SDS011;8873;48.818;9.422;2022-09-09T03:35:53;5.80;;;2.83;;
17510;SDS011;8873;48.818;9.422;2022-09-09T03:38:22;3.30;;;2.40;;
17510;SDS011;8873;48.818;9.422;2022-09-09T03:40:52;6.50;;;2.75;;
17510;SDS011;8873;48.818;9.422;2022-09-09T03:43:21;4.68;;;2.55;;
17510;SDS011;8873;48.818;9.422;2022-09-09T03:45:49;3.53;;;2.30;;
17510;SDS011;8873;48.818;9.422;2022-09-09T03:48:17;4.25;;;2.53;;
17510;SDS011;8873;48.818;9.422;2022-09-09T03:50:45;4.32;;;2.15;;
17510;SDS011;8873;48.818;9.422;2022-09-09T03:53:13;6.00;;;2.58;;
17510;SDS011;8873;48.818;9.422;2022-09-09T03:55:43;3.95;;;2.63;;
17510;SDS011;8873;48.818;9.422;2022-09-09T03:58:13;5.00;;;2.47;;
17510;SDS011;8873;48.818;9.422;2022-09-09T04:00:41;5.00;;;2.30;;
17510;SDS011;8873;48.818;9.422;2022-09-09T04:03:11;4.07;;;2.20;;
17510;SDS011;8873;48.818;9.422;2022-09-09T04:05:39;4.20;;;2.45;;
17510;SDS011;8873;48.818;9.422;2022-09-09T04:08:08;3.65;;;2.42;;
17510;SDS011;8873;48.818;9.422;2022-09-09T04:10:36;5.78;;;2.25;;
17510;SDS011;8873;48.818;9.422;2022-09-09T04:13:03;3.58;;;2.13;;
17510;SDS011;8873;48.818;9.422;2022-09-09T04:15:32;2.80;;;2.47;;
17510;SDS011;8873;48.818;9.422;2022-09-09T04:18:01;5.85;;;2.60;;
17510;SDS011;8873;48.818;9.422;2022-09-09T04:20:29;3.33;;;2.45;;
17510;SDS011;8873;48.818;9.422;2022-09-09T04:22:56;4.88;;;2.30;;
17510;SDS011;8873;48.818;9.422;2022-09-09T04:25:24;2.42;;;2.28;;
17510;SDS011;8873;48.818;9.422;2022-09-09T04:27:53;5.22;;;2.35;;
17510;SDS011;8873;48.818;9.422;2022-09-09T04:30:21;6.03;;;2.00;;
17510;SDS011;8873;48.818;9.422;2022-09-09T04:32:50;5.22;;;2.58;;
17510;SDS011;8873;48.818;9.422;2022-09-09T04:35:17;4.40;;;2.30;;
17510;SDS011;8873;48.818;9.422;2022-09-09T04:37:46;4.35;;;2.20;;
17510;SDS011;8873;48.818;9.422;2022-09-09T04:40:14;3.55;;;2.80;;
17510;SDS011;8873;48.818;9.422;2022-09-09T04:42:42;2.38;;;2.10;;
17510;SDS011;8873;48.818;9.422;2022-09-09T04:45:11;4.32;;;2.10;;
17510;SDS011;8873;48.818;9.422;2022-09-09T04:47:39;2.08;;;1.88;;
17510;SDS011;8873;48.818;9.422;2022-09-09T04:50:09;5.53;;;1.85;;
17510;SDS011;8873;48.818;9.422;2022-09-09T04:52:36;3.63;;;1.80;;
17510;SDS011;8873;48.818;9.422;2022-09-09T04:55:04;2.55;;;1.90;;
17510;SDS011;8873;48.818;9.422;2022-09-09T04:57:32;3.05;;;1.85;;
17510;SDS011;8873;48.818;9.422;2022-09-09T05:00:00;6.18;;;1.90;;
17510;SDS011;8873;48.818;9.422;2022-09-09T05:02:28;2.42;;;1.77;;
17510;SDS011;8873;48.818;9.422;2022-09-09T05:04:57;1.90;;;1.75;;
17510;SDS011;8873;48.818;9.422;2022-09-09T05:07:26;3.28;;;1.70;;
17510;SDS011;8873;48.818;9.422;2022-09-09T05:09:55;4.70;;;1.83;;
17510;SDS011;8873;48.818;9.422;2022-09-09T05:12:22;2.22;;;1.88;;
17510;SDS011;8873;48.818;9.422;2022-09-09T05:14:51;3.95;;;1.90;;
17510;SDS011;8873;48.818;9.422;2022-09-09T05:17:19;8.77;;;1.75;;
17510;SDS011;8873;48.818;9.422;2022-09-09T05:19:47;3.03;;;1.60;;
17510;SDS011;8873;48.818;9.422;2022-09-09T05:22:18;11.52;;;5.25;;
17510;SDS011;8873;48.818;9.422;2022-09-09T05:24:47;6.63;;;2.75;;
17510;SDS011;8873;48.818;9.422;2022-09-09T05:27:16;3.47;;;2.30;;
17510;SDS011;8873;48.818;9.422;2022-09-09T05:29:45;7.13;;;2.20;;
17510;SDS011;8873;48.818;9.422;2022-09-09T05:32:14;8.38;;;2.30;;
17510;SDS011;8873;48.818;9.422;2022-09-09T05:34:43;2.00;;;1.73;;
17510;SDS011;8873;48.818;9.422;2022-09-09T05:37:10;1.67;;;1.58;;
17510;SDS011;8873;48.818;9.422;2022-09-09T05:39:38;3.70;;;1.80;;
17510;SDS011;8873;48.818;9.422;2022-09-09T05:42:07;3.50;;;2.35;;
17510;SDS011;8873;48.818;9.422;2022-09-09T05:44:34;3.90;;;1.90;;
17510;SDS011;8873;48.818;9.422;2022-09-09T05:47:02;2.13;;;1.90;;
17510;SDS011;8873;48.818;9.422;2022-09-09T05:49:30;3.80;;;1.83;;
17510;SDS011;8873;48.818;9.422;2022-09-09T05:51:58;6.32;;;2.20;;
17510;SDS011;8873;48.818;9.422;2022-09-09T05:54:25;4.35;;;1.85;;
17510;SDS011;8873;48.818;9.422;2022-09-09T05:56:53;3.75;;;2.28;;
17510;SDS011;8873;48.818;9.422;2022-09-09T05:59:22;7.45;;;2.20;;
17510;SDS011;8873;48.818;9.422;2022-09-09T06:01:50;4.43;;;1.83;;
17510;SDS011;8873;48.818;9.422;2022-09-09T06:04:18;7.22;;;2.65;;
17510;SDS011;8873;48.818;9.422;2022-09-09T06:06:51;5.15;;;2.53;;
17510;SDS011;8873;48.818;9.422;2022-09-09T06:09:18;10.48;;;2.67;;
17510;SDS011;8873;48.818;9.422;2022-09-09T06:11:46;7.10;;;2.70;;
17510;SDS011;8873;48.818;9.422;2022-09-09T06:14:13;3.83;;;2.75;;
17510;SDS011;8873;48.818;9.422;2022-09-09T06:16:42;15.23;;;3.45;;
17510;SDS011;8873;48.818;9.422;2022-09-09T06:19:10;7.07;;;2.33;;
17510;SDS011;8873;48.818;9.422;2022-09-09T06:21:39;5.10;;;2.92;;
17510;SDS011;8873;48.818;9.422;2022-09-09T06:24:07;3.42;;;2.40;;
17510;SDS011;8873;48.818;9.422;2022-09-09T06:26:35;3.58;;;2.35;;
17510;SDS011;8873;48.818;9.422;2022-09-09T06:29:03;4.43;;;2.70;;
17510;SDS011;8873;48.818;9.422;2022-09-09T06:31:31;3.45;;;2.08;;
17510;SDS011;8873;48.818;9.422;2022-09-09T06:34:03;7.30;;;2.75;;
17510;SDS011;8873;48.818;9.422;2022-09-09T06:36:32;2.70;;;2.20;;
17510;SDS011;8873;48.818;9.422;2022-09-09T06:39:00;5.85;;;2.13;;
17510;SDS011;8873;48.818;9.422;2022-09-09T06:41:28;8.50;;;2.33;;
17510;SDS011;8873;48.818;9.422;2022-09-09T06:43:56;5.68;;;2.35;;
17510;SDS011;8873;48.818;9.422;2022-09-09T06:46:24;5.85;;;2.60;;
17510;SDS011;8873;48.818;9.422;2022-09-09T06:48:54;6.25;;;2.30;;
17510;SDS011;8873;48.818;9.422;2022-09-09T06:51:25;4.30;;;2.00;;
17510;SDS011;8873;48.818;9.422;2022-09-09T06:53:54;3.78;;;2.45;;
17510;SDS011;8873;48.818;9.422;2022-09-09T06:56:22;3.22;;;2.00;;
17510;SDS011;8873;48.818;9.422;2022-09-09T06:58:51;3.97;;;2.17;;
17510;SDS011;8873;48.818;9.422;2022-09-09T07:01:19;4.75;;;2.08;;
17510;SDS011;8873;48.818;9.422;2022-09-09T07:03:47;8.15;;;2.65;;
17510;SDS011;8873;48.818;9.422;2022-09-09T07:06:16;4.63;;;2.30;;
17510;SDS011;8873;48.818;9.422;2022-09-09T07:08:50;6.22;;;2.15;;
17510;SDS011;8873;48.818;9.422;2022-09-09T07:11:22;3.15;;;2.22;;
17510;SDS011;8873;48.818;9.422;2022-09-09T07:13:50;2.85;;;1.73;;
17510;SDS011;8873;48.818;9.422;2022-09-09T07:16:18;3.97;;;2.00;;
17510;SDS011;8873;48.818;9.422;2022-09-09T07:18:46;3.10;;;2.17;;
17510;SDS011;8873;48.818;9.422;2022-09-09T07:21:14;5.40;;;2.00;;
17510;SDS011;8873;48.818;9.422;2022-09-09T07:23:42;2.83;;;1.98;;
17510;SDS011;8873;48.818;9.422;2022-09-09T07:26:11;7.20;;;1.60;;
17510;SDS011;8873;48.818;9.422;2022-09-09T07:28:39;3.05;;;1.48;;
17510;SDS011;8873;48.818;9.422;2022-09-09T07:31:12;3.22;;;1.77;;
17510;SDS011;8873;48.818;9.422;2022-09-09T07:33:42;4.10;;;1.55;;
17510;SDS011;8873;48.818;9.422;2022-09-09T07:36:10;4.80;;;1.55;;
17510;SDS011;8873;48.818;9.422;2022-09-09T07:38:40;3.05;;;1.65;;
17510;SDS011;8873;48.818;9.422;2022-09-09T07:41:11;5.00;;;2.30;;
17510;SDS011;8873;48.818;9.422;2022-09-09T07:43:39;1.80;;;1.50;;
17510;SDS011;8873;48.818;9.422;2022-09-09T07:46:07;3.70;;;1.40;;
17510;SDS011;8873;48.818;9.422;2022-09-09T07:48:35;4.63;;;1.58;;
17510;SDS011;8873;48.818;9.422;2022-09-09T07:51:04;2.70;;;1.80;;
17510;SDS011;8873;48.818;9.422;2022-09-09T07:53:32;1.58;;;1.40;;
17510;SDS011;8873;48.818;9.422;2022-09-09T07:56:02;7.50;;;1.42;;
17510;SDS011;8873;48.818;9.422;2022-09-09T07:58:31;5.90;;;1.60;;
17510;SDS011;8873;48.818;9.422;2022-09-09T08:01:07;3.90;;;1.38;;
17510;SDS011;8873;48.818;9.422;2022-09-09T08:03:35;2.90;;;1.60;;
17510;SDS011;8873;48.818;9.422;2022-09-09T08:06:04;3.92;;;1.42;;
17510;SDS011;8873;48.818;9.422;2022-09-09T08:08:32;1.92;;;1.55;;
17510;SDS011;8873;48.818;9.422;2022-09-09T08:11:04;3.92;;;1.70;;
17510;SDS011;8873;48.818;9.422;2022-09-09T08:13:35;5.40;;;1.50;;
17510;SDS011;8873;48.818;9.422;2022-09-09T08:16:04;1.40;;;1.30;;
17510;SDS011;8873;48.818;9.422;2022-09-09T08:18:32;4.43;;;1.60;;
17510;SDS011;8873;48.818;9.422;2022-09-09T08:21:04;3.63;;;1.73;;
17510;SDS011;8873;48.818;9.422;2022-09-09T08:23:32;2.17;;;1.25;;
17510;SDS011;8873;48.818;9.422;2022-09-09T08:26:04;6.18;;;2.10;;
17510;SDS011;8873;48.818;9.422;2022-09-09T08:28:32;2.47;;;1.45;;
17510;SDS011;8873;48.818;9.422;2022-09-09T08:31:11;5.47;;;2.08;;
17510;SDS011;8873;48.818;9.422;2022-09-09T08:33:39;2.85;;;1.30;;
17510;SDS011;8873;48.818;9.422;2022-09-09T08:36:09;3.05;;;1.50;;
17510;SDS011;8873;48.818;9.422;2022-09-09T08:38:37;5.20;;;1.63;;
17510;SDS011;8873;48.818;9.422;2022-09-09T08:41:08;7.80;;;2.75;;
17510;SDS011;8873;48.818;9.422;2022-09-09T08:43:37;3.00;;;1.40;;
17510;SDS011;8873;48.818;9.422;2022-09-09T08:46:07;3.20;;;1.60;;
17510;SDS011;8873;48.818;9.422;2022-09-09T08:48:42;4.05;;;1.75;;
17510;SDS011;8873;48.818;9.422;2022-09-09T08:51:11;2.35;;;1.50;;
17510;SDS011;8873;48.818;9.422;2022-09-09T08:53:40;2.65;;;1.40;;
17510;SDS011;8873;48.818;9.422;2022-09-09T08:56:11;6.38;;;1.67;;
17510;SDS011;8873;48.818;9.422;2022-09-09T08:58:40;4.35;;;1.60;;
17510;SDS011;8873;48.818;9.422;2022-09-09T09:01:14;3.13;;;1.60;;
17510;SDS011;8873;48.818;9.422;2022-09-09T09:03:50;4.68;;;1.65;;
17510;SDS011;8873;48.818;9.422;2022-09-09T09:06:23;3.38;;;1.70;;
17510;SDS011;8873;48.818;9.422;2022-09-09T09:08:55;3.65;;;1.98;;
17510;SDS011;8873;48.818;9.422;2022-09-09T09:11:25;4.20;;;1.50;;
17510;SDS011;8873;48.818;9.422;2022-09-09T09:13:53;2.08;;;1.48;;
17510;SDS011;8873;48.818;9.422;2022-09-09T09:16:23;4.07;;;1.40;;
17510;SDS011;8873;48.818;9.422;2022-09-09T09:18:54;2.13;;;1.60;;
17510;SDS011;8873;48.818;9.422;2022-09-09T09:21:24;2.33;;;1.60;;
17510;SDS011;8873;48.818;9.422;2022-09-09T09:23:56;8.00;;;1.92;;
17510;SDS011;8873;48.818;9.422;2022-09-09T09:26:25;4.15;;;1.52;;
17510;SDS011;8873;48.818;9.422;2022-09-09T09:28:54;2.13;;;1.30;;
17510;SDS011;8873;48.818;9.422;2022-09-09T09:31:22;1.50;;;1.40;;
17510;SDS011;8873;48.818;9.422;2022-09-09T09:33:54;1.75;;;1.33;;
17510;SDS011;8873;48.818;9.422;2022-09-09T09:36:24;2.25;;;1.48;;
17510;SDS011;8873;48.818;9.422;2022-09-09T09:38:52;2.50;;;1.30;;
17510;SDS011;8873;48.818;9.422;2022-09-09T09:41:42;4.68;;;1.60;;
17510;SDS011;8873;48.818;9.422;2022-09-09T09:44:21;2.03;;;1.30;;
17510;SDS011;8873;48.818;9.422;2022-09-09T09:46:50;2.28;;;1.30;;
17510;SDS011;8873;48.818;9.422;2022-09-09T09:49:19;3.80;;;1.80;;
17510;SDS011;8873;48.818;9.422;2022-09-09T09:51:47;3.35;;;1.30;;
17510;SDS011;8873;48.818;9.422;2022-09-09T09:54:17;5.93;;;1.60;;
17510;SDS011;8873;48.818;9.422;2022-09-09T09:56:46;6.93;;;1.60;;
17510;SDS011;8873;48.818;9.422;2022-09-09T09:59:20;5.53;;;1.42;;
17510;SDS011;8873;48.818;9.422;2022-09-09T10:02:10;5.18;;;1.25;;
17510;SDS011;8873;48.818;9.422;2022-09-09T10:04:42;1.40;;;1.30;;
17510;SDS011;8873;48.818;9.422;2022-09-09T10:07:11;3.05;;;1.25;;
17510;SDS011;8873;48.818;9.422;2022-09-09T10:09:39;1.77;;;1.20;;
17510;SDS011;8873;48.818;9.422;2022-09-09T10:12:11;3.00;;;1.35;;
17510;SDS011;8873;48.818;9.422;2022-09-09T10:14:44;1.52;;;1.00;;
17510;SDS011;8873;48.818;9.422;2022-09-09T10:17:16;2.58;;;0.98;;
17510;SDS011;8873;48.818;9.422;2022-09-09T10:19:52;2.58;;;1.08;;
17510;SDS011;8873;48.818;9.422;2022-09-09T10:22:25;1.40;;;1.10;;
17510;SDS011;8873;48.818;9.422;2022-09-09T10:25:05;1.20;;;1.10;;
17510;SDS011;8873;48.818;9.422;2022-09-09T10:27:38;1.27;;;1.17;;
17510;SDS011;8873;48.818;9.422;2022-09-09T10:30:11;1.17;;;1.10;;
17510;SDS011;8873;48.818;9.422;2022-09-09T10:32:48;4.18;;;1.52;;
17510;SDS011;8873;48.818;9.422;2022-09-09T10:35:31;3.20;;;1.30;;
17510;SDS011;8873;48.818;9.422;2022-09-09T10:38:13;2.40;;;1.17;;
17510;SDS011;8873;48.818;9.422;2022-09-09T10:40:42;1.75;;;1.42;;
17510;SDS011;8873;48.818;9.422;2022-09-09T10:43:14;1.50;;;1.10;;
17510;SDS011;8873;48.818;9.422;2022-09-09T10:45:48;6.15;;;1.70;;
17510;SDS011;8873;48.818;9.422;2022-09-09T10:48:30;3.28;;;1.27;;
17510;SDS011;8873;48.818;9.422;2022-09-09T10:51:02;2.78;;;1.00;;
17510;SDS011;8873;48.818;9.422;2022-09-09T10:53:35;0.90;;;0.90;;
17510;SDS011;8873;48.818;9.422;2022-09-09T10:56:06;3.70;;;1.38;;
17510;SDS011;8873;48.818;9.422;2022-09-09T10:58:35;1.17;;;1.08;;
17510;SDS011;8873;48.818;9.422;2022-09-09T11:01:07;3.53;;;2.20;;
17510;SDS011;8873;48.818;9.422;2022-09-09T11:03:37;4.35;;;1.30;;
17510;SDS011;8873;48.818;9.422;2022-09-09T11:06:09;1.67;;;1.20;;
17510;SDS011;8873;48.818;9.422;2022-09-09T11:08:40;3.67;;;1.55;;
17510;SDS011;8873;48.818;9.422;2022-09-09T11:11:09;2.97;;;1.40;;
17510;SDS011;8873;48.818;9.422;2022-09-09T11:13:39;3.42;;;1.10;;
17510;SDS011;8873;48.818;9.422;2022-09-09T11:16:15;2.38;;;1.23;;
17510;SDS011;8873;48.818;9.422;2022-09-09T11:18:43;1.60;;;1.30;;
17510;SDS011;8873;48.818;9.422;2022-09-09T11:21:15;1.20;;;1.10;;
17510;SDS011;8873;48.818;9.422;2022-09-09T11:23:45;3.05;;;1.55;;
17510;SDS011;8873;48.818;9.422;2022-09-09T11:26:16;3.08;;;1.33;;
17510;SDS011;8873;48.818;9.422;2022-09-09T11:28:48;2.30;;;1.42;;
17510;SDS011;8873;48.818;9.422;2022-09-09T11:31:21;1.50;;;1.40;;
17510;SDS011;8873;48.818;9.422;2022-09-09T11:33:58;1.38;;;1.27;;
17510;SDS011;8873;48.818;9.422;2022-09-09T11:36:42;4.47;;;1.42;;
17510;SDS011;8873;48.818;9.422;2022-09-09T11:39:17;3.72;;;1.40;;
17510;SDS011;8873;48.818;9.422;2022-09-09T11:41:49;1.95;;;1.30;;
17510;SDS011;8873;48.818;9.422;2022-09-09T11:44:17;2.35;;;1.27;;
17510;SDS011;8873;48.818;9.422;2022-09-09T11:46:48;2.42;;;1.40;;
17510;SDS011;8873;48.818;9.422;2022-09-09T11:49:25;4.63;;;1.40;;
17510;SDS011;8873;48.818;9.422;2022-09-09T11:51:55;12.48;;;1.45;;
17510;SDS011;8873;48.818;9.422;2022-09-09T11:54:28;2.60;;;1.13;;
17510;SDS011;8873;48.818;9.422;2022-09-09T11:56:56;2.28;;;1.20;;
17510;SDS011;8873;48.818;9.422;2022-09-09T11:59:24;6.00;;;2.05;;
17510;SDS011;8873;48.818;9.422;2022-09-09T12:01:54;5.93;;;1.70;;
17510;SDS011;8873;48.818;9.422;2022-09-09T12:04:30;5.57;;;1.55;;
17510;SDS011;8873;48.818;9.422;2022-09-09T12:07:01;3.95;;;1.80;;
17510;SDS011;8873;48.818;9.422;2022-09-09T12:09:32;4.85;;;1.85;;
17510;SDS011;8873;48.818;9.422;2022-09-09T12:12:07;3.60;;;2.08;;
17510;SDS011;8873;48.818;9.422;2022-09-09T12:14:55;5.78;;;1.55;;
17510;SDS011;8873;48.818;9.422;2022-09-09T12:17:23;2.10;;;1.40;;
17510;SDS011;8873;48.818;9.422;2022-09-09T12:19:59;4.13;;;1.30;;
17510;SDS011;8873;48.818;9.422;2022-09-09T12:22:34;4.63;;;1.67;;
17510;SDS011;8873;48.818;9.422;2022-09-09T12:25:05;6.65;;;2.63;;
17510;SDS011;8873;48.818;9.422;2022-09-09T12:27:40;1.52;;;1.10;;
17510;SDS011;8873;48.818;9.422;2022-09-09T12:30:10;8.35;;;1.85;;
17510;SDS011;8873;48.818;9.422;2022-09-09T12:32:39;7.05;;;1.52;;
17510;SDS011;8873;48.818;9.422;2022-09-09T12:35:09;1.40;;;1.20;;
17510;SDS011;8873;48.818;9.422;2022-09-09T12:37:39;3.85;;;1.30;;
17510;SDS011;8873;48.818;9.422;2022-09-09T12:40:18;4.32;;;1.50;;
17510;SDS011;8873;48.818;9.422;2022-09-09T12:42:46;1.63;;;1.02;;
17510;SDS011;8873;48.818;9.422;2022-09-09T12:45:15;1.45;;;1.10;;
17510;SDS011;8873;48.818;9.422;2022-09-09T12:47:44;1.02;;;0.85;;
17510;SDS011;8873;48.818;9.422;2022-09-09T12:50:17;4.15;;;1.20;;
17510;SDS011;8873;48.818;9.422;2022-09-09T12:52:47;1.90;;;0.95;;
17510;SDS011;8873;48.818;9.422;2022-09-09T12:55:16;1.75;;;1.00;;
17510;SDS011;8873;48.818;9.422;2022-09-09T12:57:45;1.65;;;0.80;;
17510;SDS011;8873;48.818;9.422;2022-09-09T13:00:14;1.40;;;0.88;;
17510;SDS011;8873;48.818;9.422;2022-09-09T13:02:47;0.80;;;0.80;;
17510;SDS011;8873;48.818;9.422;2022-09-09T13:05:17;0.80;;;0.80;;
17510;SDS011;8873;48.818;9.422;2022-09-09T13:07:45;1.10;;;1.10;;
17510;SDS011;8873;48.818;9.422;2022-09-09T13:10:15;0.98;;;0.70;;
17510;SDS011;8873;48.818;9.422;2022-09-09T13:13:02;1.58;;;1.00;;
17510;SDS011;8873;48.818;9.422;2022-09-09T13:15:31;0.85;;;0.80;;
17510;SDS011;8873;48.818;9.422;2022-09-09T13:17:59;1.77;;;1.10;;
17510;SDS011;8873;48.818;9.422;2022-09-09T13:20:27;1.00;;;0.88;;
17510;SDS011;8873;48.818;9.422;2022-09-09T13:22:57;1.17;;;0.85;;
17510;SDS011;8873;48.818;9.422;2022-09-09T13:25:27;3.17;;;1.10;;
17510;SDS011;8873;48.818;9.422;2022-09-09T13:27:56;1.52;;;0.90;;
17510;SDS011;8873;48.818;9.422;2022-09-09T13:30:25;1.40;;;1.10;;
17510;SDS011;8873;48.818;9.422;2022-09-09T13:33:04;2.20;;;1.02;;
17510;SDS011;8873;48.818;9.422;2022-09-09T13:35:32;3.65;;;1.33;;
17510;SDS011;8873;48.818;9.422;2022-09-09T13:38:05;1.20;;;1.02;;
17510;SDS011;8873;48.818;9.422;2022-09-09T13:40:35;0.95;;;0.95;;
17510;SDS011;8873;48.818;9.422;2022-09-09T13:43:04;1.98;;;1.13;;
17510;SDS011;8873;48.818;9.422;2022-09-09T13:45:32;0.98;;;0.93;;
17510;SDS011;8873;48.818;9.422;2022-09-09T13:48:08;4.53;;;1.00;;
17510;SDS011;8873;48.818;9.422;2022-09-09T13:50:36;1.55;;;1.02;;
17510;SDS011;8873;48.818;9.422;2022-09-09T13:53:04;1.80;;;0.93;;
17510;SDS011;8873;48.818;9.422;2022-09-09T13:55:31;0.90;;;0.90;;
17510;SDS011;8873;48.818;9.422;2022-09-09T13:58:01;6.05;;;1.27;;
17510;SDS011;8873;48.818;9.422;2022-09-09T14:00:29;2.03;;;1.23;;
17510;SDS011;8873;48.818;9.422;2022-09-09T14:02:57;2.95;;;1.05;;
17510;SDS011;8873;48.818;9.422;2022-09-09T14:05:27;1.30;;;1.20;;
17510;SDS011;8873;48.818;9.422;2022-09-09T14:07:56;2.78;;;1.10;;
17510;SDS011;8873;48.818;9.422;2022-09-09T14:10:26;1.05;;;1.00;;
17510;SDS011;8873;48.818;9.422;2022-09-09T14:12:54;1.02;;;0.90;;
17510;SDS011;8873;48.818;9.422;2022-09-09T14:15:23;0.88;;;0.70;;
17510;SDS011;8873;48.818;9.422;2022-09-09T14:17:51;2.30;;;0.90;;
17510;SDS011;8873;48.818;9.422;2022-09-09T14:20:18;1.38;;;0.90;;
17510;SDS011;8873;48.818;9.422;2022-09-09T14:22:46;3.67;;;1.33;;
17510;SDS011;8873;48.818;9.422;2022-09-09T14:25:13;2.90;;;1.30;;
17510;SDS011;8873;48.818;9.422;2022-09-09T14:27:41;1.30;;;0.80;;
17510;SDS011;8873;48.818;9.422;2022-09-09T14:30:09;5.97;;;1.10;;
17510;SDS011;8873;48.818;9.422;2022-09-09T14:32:38;2.88;;;1.30;;
17510;SDS011;8873;48.818;9.422;2022-09-09T14:35:05;3.10;;;1.20;;
17510;SDS011;8873;48.818;9.422;2022-09-09T14:37:33;3.25;;;1.40;;
17510;SDS011;8873;48.818;9.422;2022-09-09T14:40:01;1.10;;;1.10;;
17510;SDS011;8873;48.818;9.422;2022-09-09T14:42:29;0.93;;;0.80;;
17510;SDS011;8873;48.818;9.422;2022-09-09T14:44:56;0.98;;;0.98;;
17510;SDS011;8873;48.818;9.422;2022-09-09T14:47:24;1.40;;;0.85;;
17510;SDS011;8873;48.818;9.422;2022-09-09T14:49:53;6.18;;;1.13;;
17510;SDS011;8873;48.818;9.422;2022-09-09T14:52:21;1.98;;;1.40;;
17510;SDS011;8873;48.818;9.422;2022-09-09T14:54:48;1.90;;;1.10;;
17510;SDS011;8873;48.818;9.422;2022-09-09T14:57:16;4.63;;;1.23;;
17510;SDS011;8873;48.818;9.422;2022-09-09T14:59:43;1.58;;;0.80;;
17510;SDS011;8873;48.818;9.422;2022-09-09T15:02:11;1.13;;;1.00;;
17510;SDS011;8873;48.818;9.422;2022-09-09T15:04:40;1.65;;;1.05;;
17510;SDS011;8873;48.818;9.422;2022-09-09T15:07:09;1.95;;;0.85;;
17510;SDS011;8873;48.818;9.422;2022-09-09T15:09:37;1.65;;;0.80;;
17510;SDS011;8873;48.818;9.422;2022-09-09T15:12:05;0.95;;;0.93;;
17510;SDS011;8873;48.818;9.422;2022-09-09T15:14:32;1.10;;;0.93;;
17510;SDS011;8873;48.818;9.422;2022-09-09T15:17:01;2.55;;;0.82;;
17510;SDS011;8873;48.818;9.422;2022-09-09T15:19:28;1.00;;;1.00;;